Time;durP1;ratioP1;P1;durP2;ratioP2;P2;SDS_P1;SDS_P2;PMS_P1;PMS_P2;Temp;Humidity;BMP_temperature;BMP_pressure;BME280_temperature;BME280_humidity;BME280_pressure;Samples;Min_cycle;Max_cycle;Signal;HPM_P1;HPM_P2
2021/03/19 00:00:57;;;;;;;7.10;3.67;;;2.10;99.90;;;;;;4977197;28;20038;-86
2021/03/19 00:03:23;;;;;;;8.33;4.20;;;2.00;99.90;;;;;;4977032;28;20027;-86
2021/03/19 00:05:48;;;;;;;7.27;3.97;;;2.00;99.90;;;;;;4977025;28;20038;-86
2021/03/19 00:08:14;;;;;;;8.67;3.60;;;1.90;99.90;;;;;;4975376;28;20038;-86
2021/03/19 00:10:40;;;;;;;8.27;4.40;;;1.90;99.90;;;;;;4978010;28;20038;-85
2021/03/19 00:13:10;;;;;;;9.00;4.30;;;2.00;99.90;;;;;;4976970;28;20035;-87
2021/03/19 00:15:37;;;;;;;10.67;5.03;;;2.00;99.90;;;;;;4975797;28;20598;-87
2021/03/19 00:18:04;;;;;;;8.40;4.80;;;1.90;99.90;;;;;;4977519;28;20042;-85
2021/03/19 00:20:32;;;;;;;12.23;5.40;;;1.90;99.90;;;;;;4975081;28;20027;-86
2021/03/19 00:22:58;;;;;;;11.67;4.43;;;1.90;99.90;;;;;;4977151;28;20490;-86
2021/03/19 00:25:24;;;;;;;13.53;5.37;;;1.90;99.90;;;;;;4976432;28;20030;-86
2021/03/19 00:27:49;;;;;;;8.60;5.07;;;1.90;99.90;;;;;;4974052;28;20031;-86
2021/03/19 00:30:15;;;;;;;9.10;5.23;;;1.80;99.90;;;;;;4976377;28;20030;-86
2021/03/19 00:32:42;;;;;;;11.27;5.57;;;1.90;99.90;;;;;;4976042;28;20080;-87
2021/03/19 00:35:09;;;;;;;11.67;5.90;;;1.90;99.90;;;;;;4975919;28;20050;-87
2021/03/19 00:37:35;;;;;;;12.50;6.30;;;1.80;99.90;;;;;;4976525;28;20037;-85
2021/03/19 00:40:01;;;;;;;11.97;6.20;;;1.80;99.90;;;;;;4976818;28;20018;-85
2021/03/19 00:42:27;;;;;;;10.47;6.13;;;1.80;99.90;;;;;;4976945;28;21136;-85
2021/03/19 00:44:54;;;;;;;11.93;6.10;;;1.80;99.90;;;;;;4972022;28;20057;-86
2021/03/19 00:47:19;;;;;;;13.43;6.80;;;1.80;99.90;;;;;;4966909;28;20547;-86
2021/03/19 00:49:45;;;;;;;11.63;6.67;;;1.80;99.90;;;;;;4974698;28;20101;-86
2021/03/19 00:52:11;;;;;;;11.23;6.93;;;1.80;99.90;;;;;;4974594;28;20527;-86
2021/03/19 00:54:37;;;;;;;13.93;6.27;;;1.80;99.90;;;;;;4976463;28;20097;-86
2021/03/19 00:57:03;;;;;;;11.97;5.93;;;1.80;99.90;;;;;;4976052;28;20077;-86
2021/03/19 00:59:28;;;;;;;10.97;6.33;;;1.90;99.90;;;;;;4976402;28;20022;-86
2021/03/19 01:01:54;;;;;;;12.67;6.47;;;1.90;99.90;;;;;;4975194;28;20018;-86
2021/03/19 01:04:20;;;;;;;11.70;6.27;;;1.90;99.90;;;;;;4974666;28;20108;-86
2021/03/19 01:06:45;;;;;;;11.13;6.43;;;1.90;99.90;;;;;;4975501;28;20101;-85
2021/03/19 01:09:11;;;;;;;10.63;6.30;;;1.90;99.90;;;;;;4975373;28;20046;-85
2021/03/19 01:11:37;;;;;;;11.63;6.50;;;2.00;99.90;;;;;;4975144;28;20035;-86
2021/03/19 01:14:03;;;;;;;10.40;6.20;;;1.90;99.90;;;;;;4975817;28;20037;-86
2021/03/19 01:16:29;;;;;;;13.50;6.30;;;1.90;99.90;;;;;;4974627;28;20468;-87
2021/03/19 01:18:55;;;;;;;14.17;6.67;;;1.90;99.90;;;;;;4975312;28;20038;-87
2021/03/19 01:21:21;;;;;;;11.60;6.63;;;1.90;99.90;;;;;;4976313;28;20058;-86
2021/03/19 01:23:47;;;;;;;10.80;6.40;;;1.90;99.90;;;;;;4975257;28;20041;-86
2021/03/19 01:26:14;;;;;;;11.13;6.67;;;1.90;99.90;;;;;;4992241;23;20035;-85
2021/03/19 01:28:40;;;;;;;9.93;6.20;;;1.90;99.90;;;;;;4977898;28;20022;-85
2021/03/19 01:31:07;;;;;;;11.13;6.53;;;1.90;99.90;;;;;;4987684;28;20022;-85
2021/03/19 01:33:33;;;;;;;15.33;6.70;;;1.90;99.90;;;;;;4983209;28;20033;-86
2021/03/19 01:36:04;;;;;;;10.17;6.60;;;1.90;99.90;;;;;;4984878;28;20023;-85
2021/03/19 01:38:30;;;;;;;10.77;6.60;;;1.80;99.90;;;;;;4992401;28;20137;-85
2021/03/19 01:40:58;;;;;;;11.57;6.60;;;1.80;99.90;;;;;;4980206;28;20026;-85
2021/03/19 01:43:52;;;;;;;14.43;7.40;;;1.80;99.90;;;;;;4989012;28;20021;-85
2021/03/19 01:46:55;;;;;;;10.90;6.30;;;1.80;99.90;;;;;;4985016;28;20483;-85
2021/03/19 01:49:59;;;;;;;14.43;7.03;;;1.80;99.90;;;;;;5010781;28;20026;-85
2021/03/19 01:53:03;;;;;;;13.00;7.13;;;1.70;99.90;;;;;;4979883;28;20034;-87
2021/03/19 01:56:07;;;;;;;11.23;6.50;;;1.70;99.90;;;;;;4992965;28;20053;-88
2021/03/19 01:59:10;;;;;;;15.77;6.83;;;1.70;99.90;;;;;;4992239;28;20022;-85
2021/03/19 02:02:13;;;;;;;12.37;7.20;;;1.70;99.90;;;;;;4972290;28;20022;-85
2021/03/19 02:05:17;;;;;;;9.83;6.40;;;1.70;99.90;;;;;;5001326;28;20050;-85
2021/03/19 02:08:20;;;;;;;11.03;6.87;;;1.70;99.90;;;;;;4976893;28;20033;-85
2021/03/19 02:11:04;;;;;;;;;;;1.60;99.90;;;;;;4991904;28;20054;-87
2021/03/19 02:14:07;;;;;;;10.77;6.23;;;1.60;99.90;;;;;;4987110;28;20374;-87
2021/03/19 02:17:10;;;;;;;13.07;6.80;;;1.60;99.90;;;;;;4992038;28;20022;-86
2021/03/19 02:19:55;;;;;;;;;;;1.60;99.90;;;;;;4981459;28;20029;-87
2021/03/19 02:22:58;;;;;;;11.37;6.23;;;1.50;99.90;;;;;;4993419;28;20319;-87
2021/03/19 02:26:01;;;;;;;13.13;7.53;;;1.50;99.90;;;;;;4986270;28;20113;-86
2021/03/19 02:29:04;;;;;;;12.37;7.80;;;1.40;99.90;;;;;;4977654;28;20102;-87
2021/03/19 02:32:06;;;;;;;13.03;7.50;;;1.30;99.90;;;;;;4993659;28;20030;-85
2021/03/19 02:34:48;;;;;;;17.03;8.53;;;1.30;99.90;;;;;;4986013;28;20053;-86
2021/03/19 02:37:20;;;;;;;14.75;8.63;;;1.20;99.90;;;;;;4996685;28;20045;-86
2021/03/19 02:39:49;;;;;;;17.57;8.50;;;1.20;99.90;;;;;;4995455;28;20077;-84
2021/03/19 02:42:17;;;;;;;14.33;8.50;;;1.20;99.90;;;;;;4987919;28;20027;-85
2021/03/19 02:44:43;;;;;;;14.37;8.87;;;1.20;99.90;;;;;;4980676;28;20027;-86
2021/03/19 02:47:10;;;;;;;14.90;9.10;;;1.20;99.90;;;;;;4980838;28;20479;-85
2021/03/19 02:49:38;;;;;;;16.53;8.67;;;1.30;99.90;;;;;;4982417;28;20030;-85
2021/03/19 02:52:04;;;;;;;14.20;8.27;;;1.30;99.90;;;;;;4996702;28;20129;-85
2021/03/19 02:54:29;;;;;;;16.93;8.97;;;1.30;99.90;;;;;;4983726;28;20034;-85
2021/03/19 02:56:55;;;;;;;14.17;8.93;;;1.20;99.90;;;;;;4990859;28;20056;-85
2021/03/19 02:59:21;;;;;;;14.03;9.00;;;1.30;99.90;;;;;;5000778;28;20022;-86
2021/03/19 03:01:47;;;;;;;17.30;8.20;;;1.30;99.90;;;;;;4986680;28;20050;-87
2021/03/19 03:04:13;;;;;;;14.93;9.70;;;1.30;99.90;;;;;;4981847;28;20026;-87
2021/03/19 03:06:50;;;;;;;15.83;9.50;;;1.30;99.90;;;;;;4981138;28;20395;-85
2021/03/19 03:09:20;;;;;;;16.77;9.53;;;1.30;99.90;;;;;;5001071;28;20491;-86
2021/03/19 03:11:47;;;;;;;13.73;8.77;;;1.20;99.90;;;;;;4981773;28;20038;-86
2021/03/19 03:14:17;;;;;;;15.83;9.70;;;1.20;99.90;;;;;;4979594;28;20080;-86
2021/03/19 03:16:43;;;;;;;15.37;9.93;;;1.20;99.90;;;;;;5001990;28;20637;-85
2021/03/19 03:19:13;;;;;;;17.03;9.63;;;1.10;99.90;;;;;;4992130;28;20041;-86
2021/03/19 03:21:39;;;;;;;16.13;9.70;;;1.10;99.90;;;;;;4991479;28;20383;-86
2021/03/19 03:24:06;;;;;;;18.03;10.37;;;1.00;99.90;;;;;;5002263;28;20030;-86
2021/03/19 03:26:31;;;;;;;17.67;10.70;;;0.90;99.90;;;;;;4989569;28;20529;-87
2021/03/19 03:28:58;;;;;;;17.77;10.77;;;1.00;99.90;;;;;;4994815;28;20089;-86
2021/03/19 03:31:24;;;;;;;17.53;9.93;;;0.90;99.90;;;;;;4998093;28;20109;-87
2021/03/19 03:33:49;;;;;;;20.17;9.93;;;0.90;99.90;;;;;;4995597;28;20061;-87
2021/03/19 03:36:16;;;;;;;18.57;10.33;;;0.90;99.90;;;;;;4990293;28;20022;-85
2021/03/19 03:38:42;;;;;;;15.67;10.23;;;0.90;99.90;;;;;;4986498;28;20035;-87
2021/03/19 03:41:13;;;;;;;18.23;11.27;;;0.90;99.90;;;;;;4981174;28;20019;-86
2021/03/19 03:43:39;;;;;;;23.13;10.97;;;0.90;99.90;;;;;;4978883;28;20030;-86
2021/03/19 03:46:06;;;;;;;18.13;10.93;;;0.80;99.90;;;;;;4995199;28;20018;-87
2021/03/19 03:48:33;;;;;;;18.50;11.00;;;0.90;99.90;;;;;;5002822;28;20026;-86
2021/03/19 03:51:01;;;;;;;21.07;10.63;;;1.00;99.90;;;;;;5003418;28;20033;-85
2021/03/19 03:53:27;;;;;;;19.90;10.20;;;1.00;99.90;;;;;;4980895;28;20030;-86
2021/03/19 03:55:53;;;;;;;16.97;10.90;;;1.00;99.90;;;;;;4995220;28;20072;-87
2021/03/19 03:58:19;;;;;;;19.00;10.60;;;1.10;99.90;;;;;;4995623;28;20030;-87
2021/03/19 04:00:45;;;;;;;17.13;10.80;;;1.10;99.90;;;;;;4986566;28;20026;-87
2021/03/19 04:03:12;;;;;;;17.60;11.20;;;1.20;99.90;;;;;;4992782;28;20089;-86
2021/03/19 04:05:41;;;;;;;16.67;10.77;;;1.20;99.90;;;;;;4977379;28;20053;-87
2021/03/19 04:08:08;;;;;;;14.90;10.23;;;1.20;99.90;;;;;;4978686;28;20030;-87
2021/03/19 04:10:34;;;;;;;16.33;10.60;;;1.20;99.90;;;;;;4983012;28;20049;-87
2021/03/19 04:13:00;;;;;;;15.93;11.53;;;1.30;99.90;;;;;;4987387;28;20030;-87
2021/03/19 04:15:26;;;;;;;17.27;11.47;;;1.30;99.90;;;;;;4993797;28;20036;-87
2021/03/19 04:18:00;;;;;;;23.70;11.00;;;1.30;99.90;;;;;;4997926;28;20550;-87
2021/03/19 04:20:27;;;;;;;17.80;10.97;;;1.30;99.90;;;;;;4980963;28;20026;-85
2021/03/19 04:22:53;;;;;;;17.20;11.27;;;1.20;99.90;;;;;;5003825;28;20061;-86
2021/03/19 04:25:20;;;;;;;16.30;10.87;;;1.30;99.90;;;;;;4978383;28;20050;-87
2021/03/19 04:27:56;;;;;;;19.80;10.83;;;1.30;99.90;;;;;;4992376;28;20506;-87
2021/03/19 04:30:39;;;;;;;15.57;10.77;;;1.30;99.90;;;;;;4979149;28;20033;-87
2021/03/19 04:33:05;;;;;;;19.77;10.30;;;1.30;99.90;;;;;;4989843;28;20092;-87
2021/03/19 04:35:33;;;;;;;16.80;10.90;;;1.40;99.90;;;;;;4982452;28;20096;-87
2021/03/19 04:38:04;;;;;;;16.97;11.03;;;1.30;99.90;;;;;;4980595;28;20023;-86
2021/03/19 04:40:30;;;;;;;18.17;11.43;;;1.40;99.90;;;;;;4981601;28;20574;-87
2021/03/19 04:42:57;;;;;;;18.73;12.33;;;1.40;99.90;;;;;;4998788;28;20022;-87
2021/03/19 04:45:24;;;;;;;17.87;11.30;;;1.40;99.90;;;;;;5002717;28;20026;-87
2021/03/19 04:47:53;;;;;;;20.17;12.37;;;1.40;99.90;;;;;;5001020;28;20119;-86
2021/03/19 04:50:20;;;;;;;20.93;12.23;;;1.40;99.90;;;;;;4982920;28;20060;-87
2021/03/19 04:52:45;;;;;;;19.17;12.90;;;1.40;99.90;;;;;;5000654;28;20029;-87
2021/03/19 04:55:12;;;;;;;19.53;12.23;;;1.40;99.90;;;;;;4987676;28;20030;-85
2021/03/19 04:57:37;;;;;;;19.70;12.40;;;1.30;99.90;;;;;;4978863;28;20054;-86
2021/03/19 05:00:07;;;;;;;22.17;12.17;;;1.30;99.90;;;;;;4994821;28;20101;-87
2021/03/19 05:02:59;;;;;;;17.60;12.33;;;1.30;99.90;;;;;;4994673;28;20176;-87
2021/03/19 05:05:29;;;;;;;18.57;12.40;;;1.30;99.90;;;;;;4990205;28;20053;-87
2021/03/19 05:07:57;;;;;;;19.17;12.10;;;1.30;99.90;;;;;;4982668;28;20057;-87
2021/03/19 05:10:26;;;;;;;18.23;11.90;;;1.40;99.90;;;;;;4997470;28;20038;-87
2021/03/19 05:12:52;;;;;;;20.90;11.83;;;1.40;99.90;;;;;;4995293;28;20191;-86
2021/03/19 05:15:18;;;;;;;18.77;11.73;;;1.40;99.90;;;;;;4986106;28;20109;-87
2021/03/19 05:17:44;;;;;;;18.10;12.07;;;1.40;99.90;;;;;;4985866;28;20541;-84
2021/03/19 05:20:12;;;;;;;20.43;12.97;;;1.40;99.90;;;;;;4998412;28;20027;-87
2021/03/19 05:22:38;;;;;;;20.83;12.87;;;1.30;99.90;;;;;;4986431;28;20110;-87
2021/03/19 05:25:07;;;;;;;19.73;12.03;;;1.30;99.90;;;;;;4973911;28;20173;-86
2021/03/19 05:27:33;;;;;;;22.03;13.70;;;1.30;99.90;;;;;;4978107;28;20569;-87
2021/03/19 05:29:58;;;;;;;20.90;13.23;;;1.30;99.90;;;;;;4974067;28;20042;-87
2021/03/19 05:32:25;;;;;;;21.93;14.40;;;1.30;99.90;;;;;;4992386;28;20080;-86
2021/03/19 05:34:51;;;;;;;23.17;14.80;;;1.30;99.90;;;;;;4972635;28;20026;-87
2021/03/19 05:37:19;;;;;;;21.60;13.57;;;1.30;99.90;;;;;;4992416;28;20034;-87
2021/03/19 05:39:46;;;;;;;20.07;13.20;;;1.30;99.90;;;;;;4977560;28;20026;-87
2021/03/19 05:42:28;;;;;;;21.63;13.17;;;1.20;99.90;;;;;;4989757;28;20026;-87
2021/03/19 05:45:27;;;;;;;20.60;12.95;;;1.30;99.90;;;;;;4970922;28;20031;-87
2021/03/19 05:47:55;;;;;;;21.03;13.00;;;1.30;99.90;;;;;;4974050;28;20031;-86
2021/03/19 05:50:35;;;;;;;16.97;12.30;;;1.40;99.90;;;;;;4988916;28;20483;-86
2021/03/19 05:53:17;;;;;;;21.47;12.77;;;1.40;99.90;;;;;;4995644;28;20443;-84
2021/03/19 05:55:43;;;;;;;19.20;12.13;;;1.40;99.90;;;;;;4997957;28;20022;-87
2021/03/19 05:58:19;;;;;;;19.17;12.03;;;1.40;99.90;;;;;;4999135;28;20022;-86
2021/03/19 06:00:44;;;;;;;18.17;12.97;;;1.50;99.90;;;;;;4980984;28;20097;-88
2021/03/19 06:03:11;;;;;;;18.63;12.70;;;1.50;99.90;;;;;;4982231;28;20502;-87
2021/03/19 06:05:57;;;;;;;21.30;11.87;;;1.50;99.90;;;;;;4992430;28;20033;-87
2021/03/19 06:08:30;;;;;;;20.63;11.77;;;1.50;99.90;;;;;;4980447;28;20319;-87
2021/03/19 06:11:24;;;;;;;19.67;12.27;;;1.60;99.90;;;;;;4979748;28;20041;-87
2021/03/19 06:14:03;;;;;;;20.40;12.00;;;1.50;99.90;;;;;;4980907;28;20030;-87
2021/03/19 06:16:45;;;;;;;18.73;12.50;;;1.60;99.90;;;;;;4976332;28;20036;-87
2021/03/19 06:19:28;;;;;;;21.25;12.48;;;1.50;99.90;;;;;;4986310;28;20026;-86
2021/03/19 06:22:25;;;;;;;19.73;12.43;;;1.50;99.90;;;;;;4984804;28;20121;-87
2021/03/19 06:24:58;;;;;;;25.47;14.03;;;1.60;99.90;;;;;;4965834;28;20351;-86
2021/03/19 06:27:53;;;;;;;19.90;13.40;;;1.60;99.90;;;;;;4991610;28;20026;-87
2021/03/19 06:30:38;;;;;;;18.83;12.77;;;1.60;99.90;;;;;;4979366;28;20046;-86
2021/03/19 06:33:12;;;;;;;20.37;12.40;;;1.60;99.90;;;;;;4985258;28;20026;-85
2021/03/19 06:35:47;;;;;;;17.27;12.03;;;1.60;99.90;;;;;;4995655;28;20123;-87
2021/03/19 06:38:27;;;;;;;18.13;11.30;;;1.60;99.90;;;;;;4976883;28;20563;-86
2021/03/19 06:40:54;;;;;;;18.37;11.70;;;1.60;99.90;;;;;;4978404;28;20019;-87
2021/03/19 06:43:24;;;;;;;18.87;11.10;;;1.60;99.90;;;;;;4971157;28;20053;-87
2021/03/19 06:46:09;;;;;;;19.83;12.53;;;1.50;99.90;;;;;;4997571;28;20054;-87
2021/03/19 06:48:42;;;;;;;21.30;12.43;;;1.50;99.90;;;;;;4970518;28;20029;-86
2021/03/19 06:51:32;;;;;;;20.70;12.43;;;1.50;99.90;;;;;;4979180;28;20022;-86
2021/03/19 06:54:01;;;;;;;19.30;12.67;;;1.50;99.90;;;;;;4988971;28;20045;-87
2021/03/19 06:56:28;;;;;;;20.37;13.43;;;1.50;99.90;;;;;;4987090;28;20022;-87
2021/03/19 06:58:54;;;;;;;22.17;14.43;;;1.50;99.90;;;;;;4970363;28;20495;-84
2021/03/19 07:01:23;;;;;;;21.13;13.37;;;1.60;99.90;;;;;;4987661;28;20030;-86
2021/03/19 07:04:26;;;;;;;19.77;13.10;;;1.60;99.90;;;;;;4972042;28;20023;-85
2021/03/19 07:07:16;;;;;;;22.83;13.52;;;1.60;99.90;;;;;;4976961;28;20034;-85
2021/03/19 07:09:50;;;;;;;21.60;12.90;;;1.70;99.90;;;;;;4965446;28;20761;-85
2021/03/19 07:12:47;;;;;;;26.83;14.77;;;1.70;99.90;;;;;;4987281;28;20109;-85
2021/03/19 07:15:46;;;;;;;20.20;13.37;;;1.70;99.90;;;;;;4977637;28;20026;-85
2021/03/19 07:18:44;;;;;;;22.17;13.40;;;1.70;99.90;;;;;;4972920;28;20046;-84
2021/03/19 07:21:42;;;;;;;24.80;13.07;;;1.70;99.90;;;;;;4982471;28;20391;-85
2021/03/19 07:24:24;;;;;;;19.17;12.20;;;1.70;99.90;;;;;;4990680;28;20092;-84
2021/03/19 07:26:54;;;;;;;14.93;9.77;;;1.70;99.90;;;;;;4970839;28;20031;-84
2021/03/19 07:29:40;;;;;;;21.50;13.13;;;1.60;99.90;;;;;;4973951;28;20065;-83
2021/03/19 07:32:31;;;;;;;21.03;13.87;;;1.70;99.90;;;;;;4987344;28;20045;-84
2021/03/19 07:35:09;;;;;;;24.57;14.30;;;1.70;99.90;;;;;;4973343;28;20038;-84
2021/03/19 07:38:02;;;;;;;22.27;13.60;;;1.70;99.90;;;;;;4990040;28;20030;-84
2021/03/19 07:40:56;;;;;;;23.23;13.43;;;1.80;99.90;;;;;;4985490;28;20062;-84
2021/03/19 07:43:56;;;;;;;22.10;14.13;;;1.80;99.90;;;;;;4971784;28;20372;-84
2021/03/19 07:46:57;;;;;;;21.47;13.83;;;1.80;99.90;;;;;;4979917;28;20027;-82
2021/03/19 07:50:04;;;;;;;23.50;15.23;;;1.80;99.90;;;;;;4988079;28;20399;-84
2021/03/19 07:52:51;;;;;;;23.57;15.07;;;1.90;99.90;;;;;;4974306;28;20026;-84
2021/03/19 07:55:29;;;;;;;24.47;15.37;;;2.00;99.90;;;;;;4988101;28;20037;-85
2021/03/19 07:58:00;;;;;;;21.37;14.93;;;2.00;99.90;;;;;;4988198;28;20387;-85
2021/03/19 08:00:32;;;;;;;24.07;15.33;;;2.10;99.90;;;;;;4985287;28;20096;-85
2021/03/19 08:03:06;;;;;;;24.77;15.20;;;2.20;99.90;;;;;;4970683;28;20037;-85
2021/03/19 08:05:46;;;;;;;23.47;15.00;;;2.20;99.90;;;;;;4968689;28;20026;-85
2021/03/19 08:08:30;;;;;;;22.97;15.83;;;2.20;99.90;;;;;;4971101;28;20030;-85
2021/03/19 08:11:21;;;;;;;26.27;16.87;;;2.30;99.90;;;;;;4977133;28;20027;-84
2021/03/19 08:14:17;;;;;;;22.47;14.17;;;2.30;99.90;;;;;;4990960;28;20479;-84
2021/03/19 08:16:58;;;;;;;23.00;14.70;;;2.30;99.90;;;;;;4991539;28;20034;-83
2021/03/19 08:19:48;;;;;;;23.67;15.53;;;2.40;99.90;;;;;;4979179;28;20125;-84
2021/03/19 08:22:36;;;;;;;22.53;15.10;;;2.50;99.90;;;;;;5000465;28;20137;-85
2021/03/19 08:25:16;;;;;;;19.50;13.73;;;2.60;99.90;;;;;;4975107;28;20038;-84
2021/03/19 08:27:56;;;;;;;22.47;13.60;;;2.60;99.90;;;;;;4978841;28;20070;-85
2021/03/19 08:30:50;;;;;;;21.30;14.60;;;2.60;99.90;;;;;;4992228;28;20891;-84
2021/03/19 08:33:41;;;;;;;21.67;14.17;;;2.60;99.90;;;;;;5004895;28;20022;-85
2021/03/19 08:36:16;;;;;;;18.33;12.33;;;2.70;99.90;;;;;;4984042;28;20057;-84
2021/03/19 08:38:57;;;;;;;15.93;11.07;;;2.70;99.90;;;;;;5000143;28;20029;-84
2021/03/19 08:41:28;;;;;;;15.80;10.30;;;2.70;99.90;;;;;;5005982;28;20105;-84
2021/03/19 08:44:04;;;;;;;11.37;7.77;;;2.70;99.90;;;;;;4998811;28;20019;-84
2021/03/19 08:46:50;;;;;;;14.57;10.07;;;2.70;99.90;;;;;;4978827;28;20030;-85
2021/03/19 08:49:25;;;;;;;15.60;10.10;;;2.60;99.90;;;;;;4981800;28;20026;-85
2021/03/19 08:52:01;;;;;;;16.63;10.27;;;2.60;99.90;;;;;;4994472;28;20088;-86
2021/03/19 08:54:32;;;;;;;18.50;12.77;;;2.60;99.90;;;;;;4990329;28;20034;-85
2021/03/19 08:57:04;;;;;;;21.07;12.80;;;2.60;99.90;;;;;;4981181;28;20125;-86
2021/03/19 08:59:36;;;;;;;19.65;12.90;;;2.70;99.90;;;;;;4992542;28;20033;-86
2021/03/19 09:02:10;;;;;;;17.42;11.85;;;2.70;99.90;;;;;;4996088;28;20031;-86
2021/03/19 09:04:58;;;;;;;19.87;12.83;;;2.80;99.90;;;;;;4988802;28;20027;-85
2021/03/19 09:07:31;;;;;;;22.50;14.10;;;3.00;99.90;;;;;;4977208;28;20062;-86
2021/03/19 09:10:00;;;;;;;18.23;11.90;;;3.00;99.90;;;;;;4983029;28;20038;-86
2021/03/19 09:13:09;;;;;;;18.70;11.20;;;3.00;99.90;;;;;;5004687;28;20034;-86
2021/03/19 09:15:37;;;;;;;17.77;12.17;;;3.00;99.90;;;;;;4916527;29;20618;-86
2021/03/19 09:18:11;;;;;;;16.33;10.53;;;3.00;99.90;;;;;;4965270;28;20411;-85
2021/03/19 09:20:40;;;;;;;16.23;9.90;;;2.80;99.90;;;;;;4994026;28;20054;-85
2021/03/19 09:23:20;;;;;;;16.00;9.90;;;2.80;99.90;;;;;;5007856;28;20552;-85
2021/03/19 09:26:06;;;;;;;17.30;11.27;;;2.70;99.90;;;;;;4994144;28;20061;-85
2021/03/19 09:28:53;;;;;;;19.53;11.63;;;2.60;99.90;;;;;;4985319;28;20026;-85
2021/03/19 09:31:25;;;;;;;32.43;12.10;;;2.60;99.90;;;;;;4992809;28;20026;-85
2021/03/19 09:33:50;;;;;;;23.57;12.13;;;2.70;99.90;;;;;;5001201;28;20054;-84
2021/03/19 09:36:54;;;;;;;20.43;11.67;;;2.70;99.90;;;;;;4982851;28;20316;-85
2021/03/19 09:39:54;;;;;;;17.73;11.50;;;2.70;99.90;;;;;;4997392;28;20029;-85
2021/03/19 09:42:22;;;;;;;18.10;11.50;;;2.60;99.90;;;;;;4998261;28;20030;-85
2021/03/19 09:44:53;;;;;;;21.50;12.07;;;2.50;99.90;;;;;;4989622;28;20451;-85
2021/03/19 09:47:22;;;;;;;23.40;12.10;;;2.50;99.90;;;;;;4988637;28;20038;-85
2021/03/19 09:49:48;;;;;;;18.33;12.17;;;2.60;99.90;;;;;;4978160;28;20515;-84
2021/03/19 09:52:16;;;;;;;23.80;12.77;;;2.50;99.90;;;;;;4968281;28;20114;-85
2021/03/19 09:54:42;;;;;;;20.07;12.43;;;2.60;99.90;;;;;;4981943;28;20022;-85
2021/03/19 09:57:20;;;;;;;20.30;13.43;;;2.60;99.90;;;;;;4982946;28;20377;-85
2021/03/19 09:59:53;;;;;;;37.87;14.20;;;2.70;99.90;;;;;;4975144;28;20018;-85
2021/03/19 10:02:28;;;;;;;20.03;11.73;;;2.80;99.90;;;;;;4969518;28;20467;-86
2021/03/19 10:04:54;;;;;;;21.70;12.70;;;2.90;99.90;;;;;;4974550;28;20089;-85
2021/03/19 10:07:23;;;;;;;19.30;11.67;;;3.10;99.90;;;;;;4974776;28;20811;-86
2021/03/19 10:09:56;;;;;;;19.73;11.93;;;3.20;99.90;;;;;;4981264;28;20057;-85
2021/03/19 10:12:26;;;;;;;16.07;10.47;;;3.30;99.90;;;;;;4989465;28;20022;-85
2021/03/19 10:14:55;;;;;;;17.53;11.70;;;3.40;99.90;;;;;;4973706;28;20092;-86
2021/03/19 10:17:23;;;;;;;16.07;10.17;;;3.60;99.90;;;;;;4982569;28;20034;-86
2021/03/19 10:19:59;;;;;;;19.20;10.27;;;3.70;99.90;;;;;;4991285;28;20019;-86
2021/03/19 10:22:35;;;;;;;15.43;10.67;;;3.70;99.90;;;;;;4975851;28;20018;-85
2021/03/19 10:25:13;;;;;;;15.67;10.47;;;3.80;99.90;;;;;;4976294;28;20015;-85
2021/03/19 10:28:03;;;;;;;14.47;9.43;;;3.80;99.90;;;;;;4996951;28;20079;-86
2021/03/19 10:30:47;;;;;;;15.13;10.20;;;3.80;99.90;;;;;;4988711;28;20046;-86
2021/03/19 10:33:59;;;;;;;15.20;9.30;;;3.90;99.90;;;;;;4981893;28;20045;-86
2021/03/19 10:36:37;;;;;;;13.83;8.93;;;4.40;99.90;;;;;;4951919;28;20114;-84
2021/03/19 10:39:22;;;;;;;13.03;8.00;;;4.80;99.90;;;;;;4988440;28;20475;-85
2021/03/19 10:41:52;;;;;;;12.57;8.47;;;5.00;99.90;;;;;;4988089;28;20019;-83
2021/03/19 10:44:18;;;;;;;15.10;9.37;;;5.10;99.90;;;;;;4992952;28;20511;-82
2021/03/19 10:47:01;;;;;;;12.37;7.97;;;5.00;99.90;;;;;;4982470;28;20027;-85
2021/03/19 10:50:11;;;;;;;11.77;7.90;;;4.80;99.90;;;;;;4975636;28;20558;-85
2021/03/19 10:53:03;;;;;;;12.73;7.10;;;4.60;99.90;;;;;;4912189;29;20777;-84
2021/03/19 10:55:33;;;;;;;;;;;4.50;99.90;;;;;;4991700;28;20097;-84
2021/03/19 10:58:21;;;;;;;12.13;7.80;;;4.40;99.90;;;;;;4977343;28;19997;-83
2021/03/19 11:00:51;;;;;;;10.83;7.20;;;4.20;99.90;;;;;;4977203;28;20045;-84
2021/03/19 11:03:44;;;;;;;10.67;7.13;;;4.00;99.90;;;;;;4979543;28;20088;-84
2021/03/19 11:06:15;;;;;;;10.60;6.38;;;3.80;99.90;;;;;;4973010;28;20026;-83
2021/03/19 11:08:41;;;;;;;11.07;7.03;;;3.70;99.90;;;;;;4988223;28;20022;-84
2021/03/19 11:11:08;;;;;;;10.37;6.90;;;3.60;99.90;;;;;;4979032;28;20406;-84
2021/03/19 11:13:37;;;;;;;8.83;5.77;;;3.60;99.90;;;;;;4971813;28;20042;-83
2021/03/19 11:16:25;;;;;;;10.33;6.00;;;3.50;99.90;;;;;;4979758;28;20030;-83
2021/03/19 11:19:03;;;;;;;11.10;6.47;;;3.30;99.90;;;;;;4978879;28;20533;-84
2021/03/19 11:21:31;;;;;;;9.93;6.37;;;3.20;99.90;;;;;;4970844;28;20022;-83
2021/03/19 11:24:12;;;;;;;11.17;6.90;;;3.10;99.90;;;;;;4976746;28;20026;-83
2021/03/19 11:26:39;;;;;;;10.80;6.93;;;3.10;99.90;;;;;;4984305;28;20030;-84
2021/03/19 11:29:14;;;;;;;11.00;6.93;;;3.00;99.90;;;;;;4967399;28;20027;-83
2021/03/19 11:32:00;;;;;;;10.57;6.80;;;3.00;99.90;;;;;;4987774;28;20390;-84
2021/03/19 11:34:35;;;;;;;11.00;5.70;;;3.10;99.90;;;;;;4970507;28;20041;-83
2021/03/19 11:37:33;;;;;;;8.57;5.07;;;3.10;99.90;;;;;;4970571;28;20027;-84
2021/03/19 11:40:07;;;;;;;7.27;4.50;;;3.00;99.90;;;;;;4982224;28;20038;-83
2021/03/19 11:42:40;;;;;;;9.17;5.53;;;2.90;99.90;;;;;;4981187;28;20025;-84
2021/03/19 11:45:06;;;;;;;;;;;2.90;99.90;;;;;;4969316;28;20116;-84
2021/03/19 11:47:35;;;;;;;7.20;4.60;;;2.90;99.90;;;;;;4984499;28;19961;-84
2021/03/19 11:50:20;;;;;;;7.13;4.37;;;3.00;99.90;;;;;;4969163;28;20037;-84
2021/03/19 11:52:47;;;;;;;10.67;5.80;;;3.00;99.90;;;;;;4966617;28;20045;-83
2021/03/19 11:55:21;;;;;;;10.07;5.63;;;3.00;99.90;;;;;;4976028;28;20065;-84
2021/03/19 11:57:48;;;;;;;9.80;5.90;;;3.10;99.90;;;;;;4975307;28;20500;-84
2021/03/19 12:00:24;;;;;;;10.00;5.40;;;3.30;99.90;;;;;;4979445;28;20080;-84
2021/03/19 12:02:53;;;;;;;10.13;5.80;;;3.30;99.90;;;;;;4988537;28;20023;-84
2021/03/19 12:05:20;;;;;;;10.90;6.70;;;3.40;99.90;;;;;;4968964;28;20033;-84
2021/03/19 12:07:46;;;;;;;10.77;6.67;;;3.50;99.90;;;;;;4986274;28;20026;-84
2021/03/19 12:10:14;;;;;;;11.63;6.47;;;3.50;99.90;;;;;;4979828;28;20026;-84
2021/03/19 12:12:40;;;;;;;12.93;7.53;;;3.40;99.90;;;;;;4977809;28;20093;-84
2021/03/19 12:15:08;;;;;;;16.07;8.97;;;3.30;99.90;;;;;;4984974;28;20427;-84
2021/03/19 12:17:34;;;;;;;12.07;7.07;;;3.30;99.90;;;;;;4975259;28;20512;-85
2021/03/19 12:19:59;;;;;;;13.07;7.37;;;3.20;99.90;;;;;;4982059;28;20058;-85
2021/03/19 12:22:25;;;;;;;12.70;7.13;;;3.20;99.90;;;;;;4986700;28;20069;-85
2021/03/19 12:24:51;;;;;;;15.23;8.03;;;3.10;99.90;;;;;;4987234;28;20030;-84
2021/03/19 12:27:20;;;;;;;18.50;9.10;;;3.10;99.90;;;;;;4980135;28;20057;-85
2021/03/19 12:29:46;;;;;;;12.53;6.97;;;3.20;99.90;;;;;;4975309;28;20550;-84
2021/03/19 12:32:12;;;;;;;15.73;8.50;;;3.20;99.90;;;;;;4981684;28;20068;-83
2021/03/19 12:34:39;;;;;;;20.40;9.90;;;3.10;99.90;;;;;;4980698;28;20531;-85
2021/03/19 12:37:04;;;;;;;17.47;8.87;;;3.10;99.90;;;;;;4982159;28;20411;-84
2021/03/19 12:39:30;;;;;;;13.60;8.00;;;3.00;99.90;;;;;;4977604;28;20080;-85
2021/03/19 12:41:56;;;;;;;17.90;9.83;;;2.90;99.90;;;;;;4970278;28;20022;-85
2021/03/19 12:44:22;;;;;;;18.40;10.20;;;2.90;99.90;;;;;;4977557;28;20022;-83
2021/03/19 12:46:49;;;;;;;18.07;9.20;;;2.90;99.90;;;;;;4974439;28;20479;-85
2021/03/19 12:49:15;;;;;;;17.17;9.20;;;2.80;99.90;;;;;;4992204;28;20026;-85
2021/03/19 12:51:40;;;;;;;18.00;9.90;;;2.80;99.90;;;;;;4976787;28;20022;-84
2021/03/19 12:54:06;;;;;;;22.63;11.20;;;2.70;99.90;;;;;;4983492;28;20027;-85
2021/03/19 12:56:33;;;;;;;22.57;11.73;;;2.80;99.90;;;;;;4978297;28;20098;-85
2021/03/19 12:58:59;;;;;;;19.30;9.93;;;2.80;99.90;;;;;;4977902;28;20022;-83
2021/03/19 13:01:24;;;;;;;17.60;10.13;;;2.80;99.90;;;;;;4978202;28;20046;-84
2021/03/19 13:03:51;;;;;;;15.73;9.20;;;2.90;99.90;;;;;;4994574;28;20136;-82
2021/03/19 13:06:20;;;;;;;14.40;8.50;;;2.90;99.90;;;;;;4991810;28;20110;-85
2021/03/19 13:08:46;;;;;;;18.10;10.03;;;2.80;99.90;;;;;;4978965;28;20038;-84
2021/03/19 13:11:15;;;;;;;20.17;11.23;;;2.80;99.90;;;;;;4988785;28;20073;-85
2021/03/19 13:13:45;;;;;;;19.07;11.00;;;2.80;99.90;;;;;;4993945;28;20034;-84
2021/03/19 13:16:11;;;;;;;17.37;9.90;;;2.80;99.90;;;;;;5000953;28;20026;-84
2021/03/19 13:18:37;;;;;;;20.87;12.23;;;2.70;99.90;;;;;;4975670;28;20109;-84
2021/03/19 13:21:03;;;;;;;19.20;11.33;;;2.80;99.90;;;;;;4982349;28;20109;-84